createdAt,value
2022-10-28T00:01:15.191Z,12.06
2022-10-28T00:03:44.947Z,12.14
2022-10-28T00:06:25.283Z,12.18
2022-10-28T00:08:55.089Z,12.16
2022-10-28T00:11:25.496Z,12.19
2022-10-28T00:13:57.091Z,12.10
2022-10-28T00:16:29.321Z,11.99
2022-10-28T00:18:58.245Z,11.97
2022-10-28T00:21:29.130Z,11.89
2022-10-28T00:23:56.518Z,11.88
2022-10-28T00:26:42.669Z,11.89
2022-10-28T00:29:18.303Z,11.79
2022-10-28T00:31:45.599Z,11.75
2022-10-28T00:34:15.390Z,11.78
2022-10-28T00:36:44.527Z,11.78
2022-10-28T00:39:15.505Z,11.71
2022-10-28T00:41:46.282Z,11.74
2022-10-28T00:44:44.228Z,11.69
2022-10-28T00:47:15.178Z,11.83
2022-10-28T00:49:44.684Z,11.96
2022-10-28T00:52:18.922Z,12.01
2022-10-28T00:54:46.283Z,11.97
2022-10-28T00:57:17.118Z,12.10
2022-10-28T00:59:48.885Z,12.20
2022-10-28T01:02:16.409Z,12.13
2022-10-28T01:04:44.541Z,12.07
2022-10-28T01:07:11.479Z,12.11
2022-10-28T01:09:40.520Z,12.11
2022-10-28T01:12:27.552Z,12.04
2022-10-28T01:14:54.272Z,11.96
2022-10-28T01:17:36.422Z,11.96
2022-10-28T01:20:41.772Z,11.91
2022-10-28T01:23:16.566Z,11.73
2022-10-28T01:26:01.943Z,11.76
2022-10-28T01:28:50.412Z,11.79
2022-10-28T01:31:41.074Z,11.79
2022-10-28T01:34:32.159Z,11.78
2022-10-28T01:37:17.449Z,11.98
2022-10-28T01:39:53.681Z,11.82
2022-10-28T01:42:29.456Z,11.96
2022-10-28T01:45:20.906Z,12.02
2022-10-28T01:47:54.573Z,12.02
2022-10-28T01:50:27.405Z,12.10
2022-10-28T01:52:58.396Z,12.10
2022-10-28T01:55:36.562Z,12.15
2022-10-28T01:58:05.252Z,12.16
2022-10-28T02:00:34.570Z,12.20
2022-10-28T02:03:01.453Z,12.12
2022-10-28T02:05:48.707Z,12.12
2022-10-28T02:08:18.328Z,12.19
2022-10-28T02:11:03.365Z,12.23
2022-10-28T02:13:52.965Z,12.25
2022-10-28T02:16:25.486Z,12.20
2022-10-28T02:19:13.680Z,11.89
2022-10-28T02:21:49.945Z,12.15
2022-10-28T02:24:22.812Z,11.66
2022-10-28T02:27:12.866Z,11.70
2022-10-28T02:30:06.014Z,11.62
2022-10-28T02:32:38.862Z,11.66
2022-10-28T02:35:10.679Z,11.76
2022-10-28T02:37:40.702Z,11.74
2022-10-28T02:40:13.015Z,11.57
2022-10-28T02:42:58.394Z,11.78
2022-10-28T02:45:40.300Z,11.94
2022-10-28T02:48:29.555Z,11.97
2022-10-28T02:51:06.379Z,11.89
2022-10-28T02:53:44.541Z,12.00
2022-10-28T02:56:15.112Z,11.94
2022-10-28T02:58:42.521Z,11.82
2022-10-28T03:01:09.544Z,11.91
2022-10-28T03:03:36.905Z,11.80
2022-10-28T03:06:04.219Z,11.96
2022-10-28T03:08:31.162Z,12.08
2022-10-28T03:10:58.202Z,12.19
2022-10-28T03:13:24.982Z,12.03
2022-10-28T03:15:52.125Z,12.16
2022-10-28T03:18:19.004Z,12.19
2022-10-28T03:20:45.872Z,12.12
2022-10-28T03:23:13.463Z,12.19
2022-10-28T03:25:40.405Z,12.21
2022-10-28T03:28:07.312Z,12.14
2022-10-28T03:30:42.331Z,12.13
2022-10-28T03:33:09.482Z,11.92
2022-10-28T03:35:36.317Z,12.01
2022-10-28T03:38:03.582Z,11.92
2022-10-28T03:40:30.523Z,11.98
2022-10-28T03:42:57.652Z,11.87
2022-10-28T03:45:26.415Z,11.78
2022-10-28T03:47:53.692Z,11.78
2022-10-28T03:50:21.076Z,11.78
2022-10-28T03:52:48.234Z,11.87
2022-10-28T03:55:15.182Z,11.90
2022-10-28T03:57:42.140Z,11.87
2022-10-28T04:00:09.802Z,11.91
2022-10-28T04:02:39.122Z,11.73
2022-10-28T04:05:07.783Z,11.71
2022-10-28T04:07:35.362Z,11.80
2022-10-28T04:10:02.274Z,11.87
2022-10-28T04:12:30.322Z,11.86
2022-10-28T04:14:57.378Z,11.75
2022-10-28T04:17:24.365Z,11.62
2022-10-28T04:19:51.166Z,11.57
2022-10-28T04:22:18.454Z,11.54
2022-10-28T04:24:45.284Z,11.40
2022-10-28T04:27:12.151Z,11.39
2022-10-28T04:29:39.012Z,11.34
2022-10-28T04:32:05.951Z,11.26
2022-10-28T04:34:32.944Z,11.10
2022-10-28T04:37:00.947Z,11.09
2022-10-28T04:39:27.892Z,11.09
2022-10-28T04:41:55.225Z,11.11
2022-10-28T04:44:22.208Z,11.73
2022-10-28T04:46:48.995Z,11.47
2022-10-28T04:49:16.098Z,11.22
2022-10-28T04:51:43.394Z,11.17
2022-10-28T04:54:10.524Z,11.14
2022-10-28T04:56:37.679Z,11.09
2022-10-28T04:59:04.752Z,11.07
2022-10-28T05:01:31.673Z,11.17
2022-10-28T05:04:00.784Z,11.10
2022-10-28T05:06:28.929Z,11.18
2022-10-28T05:08:55.923Z,11.23
2022-10-28T05:11:29.388Z,11.34
2022-10-28T05:13:56.375Z,11.45
2022-10-28T05:16:23.500Z,11.50
2022-10-28T05:18:50.365Z,11.61
2022-10-28T05:21:17.437Z,11.64
2022-10-28T05:23:44.322Z,11.76
2022-10-28T05:26:11.184Z,11.73
2022-10-28T05:28:38.133Z,11.83
2022-10-28T05:31:05.017Z,11.99
2022-10-28T05:33:33.736Z,12.62
2022-10-28T05:36:01.097Z,13.22
2022-10-28T05:38:28.223Z,14.00
2022-10-28T05:40:55.379Z,14.47
2022-10-28T05:43:22.515Z,14.67
2022-10-28T05:45:57.131Z,14.74
2022-10-28T05:48:24.576Z,15.44
2022-10-28T05:50:51.456Z,15.99
2022-10-28T05:53:18.284Z,16.75
2022-10-28T05:55:47.788Z,16.94
2022-10-28T05:58:15.333Z,17.89
2022-10-28T06:00:42.091Z,18.36
2022-10-28T06:03:12.351Z,18.70
2022-10-28T06:05:45.323Z,18.71
2022-10-28T06:08:13.779Z,19.56
2022-10-28T06:10:41.979Z,18.84
2022-10-28T06:13:07.901Z,19.66
2022-10-28T06:15:34.980Z,19.66
2022-10-28T06:18:01.823Z,19.76
2022-10-28T06:20:28.733Z,20.65
2022-10-28T06:22:56.423Z,21.10
2022-10-28T06:25:24.909Z,21.44
2022-10-28T06:27:54.331Z,22.23
2022-10-28T06:30:22.561Z,22.71
2022-10-28T06:32:49.646Z,22.63
2022-10-28T06:35:17.255Z,22.75
2022-10-28T06:37:44.058Z,22.89
2022-10-28T06:40:10.997Z,22.92
2022-10-28T06:42:45.674Z,23.21
2022-10-28T06:45:12.701Z,23.81
2022-10-28T06:47:41.692Z,23.54
2022-10-28T06:50:09.033Z,24.36
2022-10-28T06:52:36.065Z,24.50
2022-10-28T06:55:02.964Z,25.14
2022-10-28T06:57:31.022Z,25.39
2022-10-28T06:59:57.941Z,24.78
2022-10-28T07:02:24.784Z,24.54
2022-10-28T07:04:51.855Z,25.92
2022-10-28T07:07:19.759Z,26.65
2022-10-28T07:09:46.720Z,26.71
2022-10-28T07:12:13.710Z,26.47
2022-10-28T07:14:43.005Z,25.95
2022-10-28T07:17:09.893Z,25.49
2022-10-28T07:19:36.806Z,25.67
2022-10-28T07:22:03.662Z,25.56
2022-10-28T07:24:30.600Z,25.19
2022-10-28T07:26:57.944Z,25.62
2022-10-28T07:29:25.315Z,25.89
2022-10-28T07:31:54.840Z,25.30
2022-10-28T07:34:27.005Z,25.03
2022-10-28T07:36:55.365Z,25.40
2022-10-28T07:39:22.551Z,25.36
2022-10-28T07:41:49.523Z,24.73
2022-10-28T07:44:16.520Z,24.95
2022-10-28T07:46:43.499Z,25.53
2022-10-28T07:49:10.928Z,25.16
2022-10-28T07:51:37.797Z,24.23
2022-10-28T07:54:06.074Z,24.54
2022-10-28T07:56:32.894Z,24.49
2022-10-28T07:59:00.619Z,24.54
2022-10-28T08:01:27.652Z,25.49
2022-10-28T08:03:54.824Z,25.49
2022-10-28T08:06:22.258Z,24.95
2022-10-28T08:08:54.716Z,24.73
2022-10-28T08:11:25.575Z,24.71
2022-10-28T08:13:53.768Z,25.34
2022-10-28T08:16:20.770Z,25.88
2022-10-28T08:18:48.182Z,26.00
2022-10-28T08:21:15.447Z,26.02
2022-10-28T08:23:46.681Z,26.31
2022-10-28T08:26:15.098Z,26.47
2022-10-28T08:28:42.827Z,26.73
2022-10-28T08:31:12.493Z,26.69
2022-10-28T08:33:42.813Z,26.17
2022-10-28T08:36:12.725Z,26.18
2022-10-28T08:38:45.157Z,25.97
2022-10-28T08:41:30.627Z,26.34
2022-10-28T08:44:23.978Z,26.36
2022-10-28T08:47:09.358Z,26.80
2022-10-28T08:49:41.724Z,26.61
2022-10-28T08:52:30.493Z,26.36
2022-10-28T08:55:07.745Z,26.66
2022-10-28T08:57:47.367Z,26.71
2022-10-28T09:00:28.529Z,26.14
2022-10-28T09:03:14.748Z,26.53
2022-10-28T09:05:45.168Z,26.65
2022-10-28T09:08:29.592Z,26.92
2022-10-28T09:11:34.822Z,26.77
2022-10-28T09:14:30.132Z,26.79
2022-10-28T09:17:14.047Z,26.48
2022-10-28T09:19:52.975Z,26.29
2022-10-28T09:23:01.071Z,26.60
2022-10-28T09:25:49.721Z,26.92
2022-10-28T09:28:46.685Z,26.88
2022-10-28T09:31:37.961Z,26.99
2022-10-28T09:34:14.425Z,26.84
2022-10-28T09:36:46.704Z,26.80
2022-10-28T09:39:28.050Z,26.92
2022-10-28T09:41:59.917Z,26.33
2022-10-28T09:44:54.375Z,26.55
2022-10-28T09:47:26.891Z,26.92
2022-10-28T09:50:00.069Z,26.74
2022-10-28T09:52:33.649Z,26.75
2022-10-28T09:55:08.056Z,26.63
2022-10-28T09:57:35.311Z,26.65
2022-10-28T10:00:02.421Z,26.61
2022-10-28T10:02:32.159Z,26.51
2022-10-28T10:05:00.858Z,26.60
2022-10-28T10:07:35.958Z,26.79
2022-10-28T10:10:10.653Z,26.77
2022-10-28T10:12:39.240Z,26.69
2022-10-28T10:15:11.930Z,26.23
2022-10-28T10:17:48.994Z,26.45
2022-10-28T10:20:19.893Z,26.49
2022-10-28T10:22:49.409Z,26.55
2022-10-28T10:25:19.258Z,26.49
2022-10-28T10:28:15.812Z,26.58
2022-10-28T10:30:52.666Z,26.11
2022-10-28T10:33:26.738Z,26.53
2022-10-28T10:36:00.181Z,25.93
2022-10-28T10:38:29.133Z,26.40
2022-10-28T10:40:56.895Z,26.24
2022-10-28T10:43:37.065Z,26.51
2022-10-28T10:46:05.317Z,26.40
2022-10-28T10:48:38.619Z,26.18
2022-10-28T10:51:07.167Z,26.17
2022-10-28T10:53:35.511Z,26.13
2022-10-28T10:56:05.516Z,26.38
2022-10-28T10:58:40.281Z,25.83
2022-10-28T11:01:09.724Z,26.00
2022-10-28T11:03:50.283Z,25.82
2022-10-28T11:06:30.501Z,25.92
2022-10-28T11:09:02.806Z,25.77
2022-10-28T11:11:36.273Z,25.62
2022-10-28T11:14:10.144Z,25.68
2022-10-28T11:17:00.461Z,25.14
2022-10-28T11:19:37.272Z,25.23
2022-10-28T11:22:38.449Z,25.39
2022-10-28T11:25:34.783Z,25.35
2022-10-28T11:28:21.845Z,25.23
2022-10-28T11:31:00.519Z,25.02
2022-10-28T11:34:09.235Z,25.08
2022-10-28T11:37:10.196Z,24.96
2022-10-28T11:40:14.064Z,24.40
2022-10-28T11:43:18.543Z,24.45
2022-10-28T11:45:51.560Z,24.36
2022-10-28T11:48:33.180Z,24.19
2022-10-28T11:51:18.215Z,24.45
2022-10-28T11:54:13.343Z,24.21
2022-10-28T11:56:47.656Z,24.09
2022-10-28T11:59:17.385Z,24.12
2022-10-28T12:02:12.239Z,24.15
2022-10-28T12:04:53.515Z,24.29
2022-10-28T12:07:35.419Z,24.29
2022-10-28T12:10:19.719Z,23.95
2022-10-28T12:13:05.253Z,24.04
2022-10-28T12:15:31.991Z,24.23
2022-10-28T12:18:11.610Z,24.25
2022-10-28T12:20:42.634Z,24.17
2022-10-28T12:23:17.164Z,24.23
2022-10-28T12:25:48.193Z,24.23
2022-10-28T12:28:21.774Z,24.19
2022-10-28T12:30:51.014Z,24.19
2022-10-28T12:33:23.943Z,24.09
2022-10-28T12:35:57.893Z,23.72
2022-10-28T12:38:38.574Z,23.82
2022-10-28T12:41:14.423Z,23.76
2022-10-28T12:44:03.084Z,23.84
2022-10-28T12:46:54.860Z,23.81
2022-10-28T12:49:43.992Z,23.52
2022-10-28T12:52:25.121Z,23.57
2022-10-28T12:55:01.897Z,23.49
2022-10-28T12:57:31.013Z,23.60
2022-10-28T13:00:02.230Z,23.53
2022-10-28T13:02:35.732Z,23.40
2022-10-28T13:05:04.897Z,22.95
2022-10-28T13:07:47.560Z,23.19
2022-10-28T13:13:09.330Z,23.12
2022-10-28T13:15:57.900Z,23.24
2022-10-28T13:18:34.891Z,23.11
2022-10-28T13:21:34.285Z,23.16
2022-10-28T13:24:21.464Z,22.93
2022-10-28T13:26:49.293Z,22.91
2022-10-28T13:29:29.502Z,22.92
2022-10-28T13:31:56.546Z,22.81
2022-10-28T13:34:35.299Z,22.82
2022-10-28T13:37:05.081Z,22.84
2022-10-28T13:39:34.793Z,22.79
2022-10-28T13:42:13.889Z,22.79
2022-10-28T13:44:49.509Z,22.68
2022-10-28T13:47:33.829Z,22.59
2022-10-28T13:50:06.560Z,22.55
2022-10-28T13:52:45.159Z,22.60
2022-10-28T13:55:43.646Z,22.34
2022-10-28T13:58:23.194Z,22.36
2022-10-28T14:00:53.260Z,22.34
2022-10-28T14:03:27.295Z,22.35
2022-10-28T14:05:59.665Z,22.36
2022-10-28T14:08:38.533Z,22.31
2022-10-28T14:11:32.997Z,22.23
2022-10-28T14:14:03.504Z,22.22
2022-10-28T14:16:38.345Z,22.20
2022-10-28T14:19:11.302Z,22.06
2022-10-28T14:21:48.830Z,22.03
2022-10-28T14:24:35.984Z,22.02
2022-10-28T14:27:08.741Z,21.93
2022-10-28T14:30:04.199Z,21.94
2022-10-28T14:32:30.940Z,21.85
2022-10-28T14:35:19.390Z,21.75
2022-10-28T14:38:12.235Z,21.75
2022-10-28T14:40:41.925Z,21.68
2022-10-28T14:43:30.327Z,21.58
2022-10-28T14:46:19.237Z,21.52
2022-10-28T14:48:52.459Z,21.46
2022-10-28T14:51:24.473Z,21.35
2022-10-28T14:53:56.653Z,21.31
2022-10-28T14:56:29.095Z,21.23
2022-10-28T14:59:05.197Z,21.16
2022-10-28T15:01:50.787Z,21.08
2022-10-28T15:04:18.438Z,21.03
2022-10-28T15:06:48.240Z,20.92
2022-10-28T15:09:27.434Z,20.84
2022-10-28T15:11:59.950Z,20.72
2022-10-28T15:14:26.716Z,20.68
2022-10-28T15:16:53.895Z,20.57
2022-10-28T15:19:24.775Z,20.47
2022-10-28T15:22:01.824Z,20.32
2022-10-28T15:24:28.693Z,20.22
2022-10-28T15:26:56.683Z,20.10
2022-10-28T15:29:24.552Z,19.99
2022-10-28T15:32:26.780Z,19.90
2022-10-28T15:34:53.793Z,19.84
2022-10-28T15:37:27.020Z,19.72
2022-10-28T15:40:12.559Z,19.63
2022-10-28T15:42:59.500Z,19.53
2022-10-28T15:45:29.627Z,19.43
2022-10-28T15:47:58.585Z,19.37
2022-10-28T15:50:34.125Z,19.24
2022-10-28T15:53:09.995Z,19.15
2022-10-28T15:58:35.890Z,19.02
2022-10-28T16:01:03.101Z,18.98
2022-10-28T16:03:48.476Z,18.88
2022-10-28T16:06:24.109Z,18.76
2022-10-28T16:09:09.828Z,18.71
2022-10-28T16:11:42.713Z,18.69
2022-10-28T16:14:46.604Z,18.54
2022-10-28T16:17:18.313Z,18.42
2022-10-28T16:20:00.473Z,18.25
2022-10-28T16:22:29.489Z,18.18
2022-10-28T16:24:56.718Z,18.10
2022-10-28T16:27:31.925Z,17.99
2022-10-28T16:29:58.979Z,17.87
2022-10-28T16:32:31.750Z,17.75
2022-10-28T16:35:01.151Z,17.65
2022-10-28T16:37:31.082Z,17.51
2022-10-28T16:40:00.976Z,17.49
2022-10-28T16:42:27.955Z,17.43
2022-10-28T16:44:54.782Z,17.29
2022-10-28T16:47:24.426Z,17.22
2022-10-28T16:49:54.509Z,17.05
2022-10-28T16:52:28.234Z,17.06
2022-10-28T16:54:55.931Z,16.90
2022-10-28T16:59:51.365Z,16.71
2022-10-28T17:02:27.736Z,16.60
2022-10-28T17:04:55.388Z,16.46
2022-10-28T17:07:30.821Z,16.43
2022-10-28T17:09:57.743Z,16.46
2022-10-28T17:12:27.084Z,16.42
2022-10-28T17:14:54.113Z,16.38
2022-10-28T17:17:23.436Z,16.47
2022-10-28T17:19:50.408Z,16.37
2022-10-28T17:22:17.377Z,16.27
2022-10-28T17:24:44.302Z,16.19
2022-10-28T17:27:11.145Z,16.07
2022-10-28T17:29:39.041Z,16.02
2022-10-28T17:32:09.907Z,15.92
2022-10-28T17:34:36.773Z,15.90
2022-10-28T17:37:04.504Z,15.79
2022-10-28T17:39:31.348Z,15.74
2022-10-28T17:42:16.770Z,15.66
2022-10-28T17:44:43.582Z,15.74
2022-10-28T17:47:12.304Z,15.70
2022-10-28T17:49:39.306Z,15.59
2022-10-28T17:52:06.141Z,15.52
2022-10-28T17:54:33.053Z,15.49
2022-10-28T17:57:00.025Z,15.41
2022-10-28T17:59:26.913Z,15.39
2022-10-28T18:01:54.915Z,15.27
2022-10-28T18:04:26.682Z,15.27
2022-10-28T18:06:55.372Z,15.31
2022-10-28T18:09:22.555Z,15.32
2022-10-28T18:11:50.755Z,15.17
2022-10-28T18:14:18.053Z,15.24
2022-10-28T18:16:46.124Z,15.31
2022-10-28T18:19:13.784Z,15.13
2022-10-28T18:21:40.596Z,15.18
2022-10-28T18:24:07.898Z,15.20
2022-10-28T18:26:36.983Z,15.20
2022-10-28T18:29:05.662Z,15.19
2022-10-28T18:31:33.840Z,15.01
2022-10-28T18:34:01.698Z,14.96
2022-10-28T18:36:34.459Z,14.93
2022-10-28T18:39:04.654Z,15.01
2022-10-28T18:41:32.246Z,14.90
2022-10-28T18:44:01.606Z,14.94
2022-10-28T18:46:30.067Z,14.93
2022-10-28T18:51:27.568Z,14.75
2022-10-28T18:53:55.773Z,14.75
2022-10-28T18:56:30.922Z,14.76
2022-10-28T18:58:58.745Z,14.67
2022-10-28T19:01:28.328Z,14.75
2022-10-28T19:04:00.327Z,14.59
2022-10-28T19:06:32.970Z,14.60
2022-10-28T19:09:02.345Z,14.59
2022-10-28T19:11:31.374Z,14.52
2022-10-28T19:14:00.301Z,14.38
2022-10-28T19:16:28.577Z,14.29
2022-10-28T19:18:57.393Z,14.23
2022-10-28T19:21:25.523Z,14.15
2022-10-28T19:23:52.927Z,14.20
2022-10-28T19:26:20.170Z,14.21
2022-10-28T19:28:48.425Z,14.08
2022-10-28T19:31:24.762Z,14.12
2022-10-28T19:33:55.272Z,14.01
2022-10-28T19:36:27.134Z,13.94
2022-10-28T19:38:54.966Z,13.85
2022-10-28T19:41:24.806Z,13.99
2022-10-28T19:43:58.230Z,13.74
2022-10-28T19:46:27.249Z,13.70
2022-10-28T19:48:56.677Z,13.56
2022-10-28T19:51:27.327Z,13.53
2022-10-28T19:53:57.037Z,13.49
2022-10-28T19:56:24.030Z,13.56
2022-10-28T19:58:53.565Z,13.48
2022-10-28T20:01:22.204Z,13.43
2022-10-28T20:03:53.201Z,13.54
2022-10-28T20:06:25.598Z,13.58
2022-10-28T20:08:53.195Z,13.64
2022-10-28T20:11:25.886Z,13.77
2022-10-28T20:14:02.374Z,13.76
2022-10-28T20:16:29.418Z,13.81
2022-10-28T20:18:57.767Z,13.66
2022-10-28T20:21:30.226Z,13.59
2022-10-28T20:23:58.169Z,13.59
2022-10-28T20:26:30.750Z,13.59
2022-10-28T20:28:58.281Z,13.52
2022-10-28T20:31:27.295Z,13.56
2022-10-28T20:34:03.921Z,13.63
2022-10-28T20:36:39.036Z,13.54
2022-10-28T20:39:13.825Z,13.48
2022-10-28T20:41:42.076Z,13.35
2022-10-28T20:44:08.893Z,13.24
2022-10-28T20:46:36.320Z,13.30
2022-10-28T20:49:04.194Z,13.18
2022-10-28T20:51:32.497Z,13.18
2022-10-28T20:54:00.317Z,13.16
2022-10-28T20:56:29.671Z,13.01
2022-10-28T20:58:58.113Z,13.07
2022-10-28T21:01:30.864Z,12.97
2022-10-28T21:04:00.526Z,12.96
2022-10-28T21:06:28.029Z,12.92
2022-10-28T21:08:55.478Z,12.93
2022-10-28T21:11:23.652Z,12.86
2022-10-28T21:13:52.657Z,12.82
2022-10-28T21:16:20.614Z,12.72
2022-10-28T21:18:49.688Z,12.65
2022-10-28T21:21:17.567Z,12.65
2022-10-28T21:23:44.449Z,12.65
2022-10-28T21:26:12.504Z,12.56
2022-10-28T21:28:42.612Z,12.58
2022-10-28T21:31:15.045Z,12.43
2022-10-28T21:33:43.039Z,12.47
2022-10-28T21:36:12.974Z,12.41
2022-10-28T21:38:40.060Z,12.42
2022-10-28T21:41:18.379Z,12.47
2022-10-28T21:43:50.945Z,12.62
2022-10-28T21:46:18.991Z,12.50
2022-10-28T21:48:46.601Z,12.38
2022-10-28T21:51:15.481Z,12.30
2022-10-28T21:53:44.178Z,12.29
2022-10-28T21:56:18.857Z,12.41
2022-10-28T21:58:48.243Z,12.34
2022-10-28T22:01:18.964Z,12.50
2022-10-28T22:03:46.139Z,12.54
2022-10-28T22:06:13.344Z,12.53
2022-10-28T22:08:40.178Z,12.56
2022-10-28T22:11:15.725Z,12.50
2022-10-28T22:13:42.729Z,12.38
2022-10-28T22:16:15.516Z,12.41
2022-10-28T22:18:43.176Z,12.40
2022-10-28T22:21:13.268Z,12.44
2022-10-28T22:23:40.324Z,12.21
2022-10-28T22:26:10.133Z,12.18
2022-10-28T22:28:37.336Z,12.12
2022-10-28T22:33:33.127Z,12.01
2022-10-28T22:36:05.347Z,12.04
2022-10-28T22:38:32.559Z,12.08
2022-10-28T22:41:08.843Z,11.94
2022-10-28T22:43:35.668Z,11.89
2022-10-28T22:46:02.662Z,11.82
2022-10-28T22:48:29.995Z,11.84
2022-10-28T22:50:57.139Z,11.79
2022-10-28T22:53:24.285Z,11.73
2022-10-28T22:55:52.875Z,11.78
2022-10-28T22:58:20.660Z,11.64
2022-10-28T23:00:47.574Z,11.62
2022-10-28T23:03:14.902Z,11.58
2022-10-28T23:05:41.774Z,11.60
2022-10-28T23:08:12.308Z,11.67
2022-10-28T23:10:39.258Z,11.73
2022-10-28T23:13:06.099Z,11.80
2022-10-28T23:15:33.744Z,11.87
2022-10-28T23:18:19.473Z,11.83
2022-10-28T23:20:46.313Z,11.80
2022-10-28T23:23:15.705Z,11.79
2022-10-28T23:25:42.861Z,11.69
2022-10-28T23:28:10.378Z,11.64
2022-10-28T23:30:37.209Z,11.58
2022-10-28T23:33:04.262Z,11.61
2022-10-28T23:35:31.145Z,11.63
2022-10-28T23:37:59.383Z,11.51
2022-10-28T23:40:26.584Z,11.55
2022-10-28T23:42:53.680Z,11.55
2022-10-28T23:45:20.725Z,11.47
2022-10-28T23:47:47.582Z,11.54
2022-10-28T23:50:15.081Z,11.45
2022-10-28T23:52:42.094Z,11.40
2022-10-28T23:55:09.567Z,11.29
2022-10-28T23:57:36.434Z,11.21
